Terminal Aerodrome Forecast
Issued by NWS

Home | Current Version | Previous Version | Text Only | Print | Product List | Glossary On
Versions: 1 2 3 4 5 6 7 8 9 10 11 12
000
FTUS43 KPAH 220520
TAFCGI
TAF
KCGI 220520Z 2206/2306 02009KT P6SM BKN100
     FM221400 04012KT P6SM BKN200
     FM230000 05007KT P6SM SCT100 BKN200=

USA.gov is the U.S. government's official web portal to all federal, state and local government web resources and services.